Aldergrove, United Kingdom
Current Conditions -  °F | °C
As of 8:50 AM on Saturday 22 Nov 2014 (Local Time) from EGAA Reporting Station
Broken Clouds Broken Clouds  
Wind Chill: 46°   Ceiling: 1300
Heat Index: 48°   Visibility: 6mi
Dew Point: 48°   Wind: 6mph
Humidity: 100%   Direction: 210°SSW
Pressure: 29.68"   Gusts: NA
Location:  54.62°N, 6.21°W
Report Text: EGAA 220850Z 21005KT 9999 SCT009 BKN013 09/09 Q1005
Loading
Personal Weather Stations






























Interactive Weather Map New forecast layout! Learn more

10-Day Weather Forecast

Advertisements
Track Severe Weather on mobile